Time,TemperatureF,DewpointF,PressureIn,WindDirection,WindDirectionDegrees,WindSpeedMPH,WindSpeedGustMPH,Humidity,HourlyPrecipIn,Conditions,Clouds,dailyrainin,SoftwareType,DateUTC
2013-09-04 00:02:00,55.2,50.1,29.67,North,0,0.0,0.0,83,0.00,CLR,,0.00,WeatherDisplay:10.37,2013-09-03 23:02:00,
2013-09-04 00:07:00,55.2,50.1,29.66,NNW,338,0.0,0.0,83,0.00,CLR,,0.00,WeatherDisplay:10.37,2013-09-03 23:07:00,
2013-09-04 00:12:00,55.0,50.0,29.67,WSW,248,0.0,0.5,83,0.00,CLR,,0.00,WeatherDisplay:10.37,2013-09-03 23:12:00,
2013-09-04 00:17:00,55.0,50.0,29.67,WNW,292,1.2,1.2,83,0.00,CLR,,0.00,WeatherDisplay:10.37,2013-09-03 23:17:00,
2013-09-04 00:22:00,55.0,50.0,29.66,WNW,292,0.0,0.5,83,0.00,CLR,,0.00,WeatherDisplay:10.37,2013-09-03 23:22:00,
2013-09-04 00:27:00,54.9,49.8,29.66,SE,135,2.3,2.3,83,0.00,CLR,,0.00,WeatherDisplay:10.37,2013-09-03 23:27:00,
2013-09-04 00:32:00,54.7,49.9,29.66,SSW,202,3.5,3.7,84,0.00,CLR,,0.00,WeatherDisplay:10.37,2013-09-03 23:32:00,
2013-09-04 00:37:00,54.7,49.9,29.66,WSW,248,3.5,3.5,84,0.00,CLR,,0.00,WeatherDisplay:10.37,2013-09-03 23:37:00,
2013-09-04 00:42:00,54.7,49.9,29.66,WNW,292,2.3,2.3,84,0.00,CLR,,0.00,WeatherDisplay:10.37,2013-09-03 23:42:00,
2013-09-04 00:47:00,54.7,49.9,29.66,SW,225,3.1,3.1,84,0.00,CLR,,0.00,WeatherDisplay:10.37,2013-09-03 23:47:00,
2013-09-04 00:52:00,54.7,50.3,29.66,SW,225,3.5,3.5,85,0.00,CLR,,0.00,WeatherDisplay:10.37,2013-09-03 23:52:00,
2013-09-04 00:57:00,54.7,50.3,29.66,SW,225,3.5,3.6,85,0.00,CLR,,0.00,WeatherDisplay:10.37,2013-09-03 23:57:00,
2013-09-04 01:02:00,54.7,50.3,29.66,SW,225,3.5,3.6,85,0.00,CLR,,0.00,WeatherDisplay:10.37,2013-09-04 00:02:00,
2013-09-04 01:07:00,54.7,50.3,29.66,SW,225,3.5,3.6,85,0.00,CLR,,0.00,WeatherDisplay:10.37,2013-09-04 00:07:00,
2013-09-04 01:12:00,54.9,50.4,29.65,SW,225,3.5,6.2,85,0.00,CLR,,0.00,WeatherDisplay:10.37,2013-09-04 00:12:00,
2013-09-04 01:17:00,54.9,50.8,29.65,SW,225,3.5,3.5,86,0.00,CLR,,0.00,WeatherDisplay:10.37,2013-09-04 00:17:00,
2013-09-04 01:22:00,54.9,50.8,29.65,South,180,4.6,4.6,86,0.00,CLR,,0.00,WeatherDisplay:10.37,2013-09-04 00:22:00,
2013-09-04 01:27:00,54.9,50.8,29.65,SW,225,4.6,4.6,86,0.00,CLR,,0.00,WeatherDisplay:10.37,2013-09-04 00:27:00,
2013-09-04 01:32:00,54.7,50.6,29.65,SSE,158,5.8,5.8,86,0.00,CLR,,0.00,WeatherDisplay:10.37,2013-09-04 00:32:00,
2013-09-04 01:37:00,54.7,50.9,29.65,SSE,158,4.6,4.6,87,0.00,CLR,,0.00,WeatherDisplay:10.37,2013-09-04 00:37:00,
2013-09-04 01:42:00,54.9,51.1,29.65,SSE,158,4.6,4.6,87,0.00,CLR,,0.00,WeatherDisplay:10.37,2013-09-04 00:42:00,
2013-09-04 01:47:00,54.9,51.1,29.65,SSE,158,3.5,4.3,87,0.00,CLR,,0.00,WeatherDisplay:10.37,2013-09-04 00:47:00,
2013-09-04 01:52:00,54.9,51.1,29.65,SSE,158,4.6,4.6,87,0.00,CLR,,0.00,WeatherDisplay:10.37,2013-09-04 00:52:00,
2013-09-04 01:57:00,55.0,51.2,29.65,SSE,158,9.2,9.2,87,0.00,CLR,,0.00,WeatherDisplay:10.37,2013-09-04 00:57:00,
2013-09-04 02:02:00,54.9,51.1,29.65,SSE,158,8.1,8.1,87,0.00,CLR,,0.00,WeatherDisplay:10.37,2013-09-04 01:02:00,
2013-09-04 02:07:00,55.0,51.2,29.65,South,180,4.6,4.6,87,0.00,CLR,,0.00,WeatherDisplay:10.37,2013-09-04 01:07:00,
2013-09-04 02:12:00,55.0,51.2,29.65,SE,135,8.1,8.1,87,0.00,CLR,,0.00,WeatherDisplay:10.37,2013-09-04 01:12:00,
2013-09-04 02:17:00,55.0,51.2,29.65,SE,135,3.5,9.7,87,0.00,CLR,,0.00,WeatherDisplay:10.37,2013-09-04 01:17:00,
2013-09-04 02:22:00,55.0,51.2,29.65,South,180,9.2,9.2,87,0.00,CLR,,0.00,WeatherDisplay:10.37,2013-09-04 01:22:00,
2013-09-04 02:27:00,55.0,51.2,29.65,South,180,2.3,7.1,87,0.00,CLR,,0.00,WeatherDisplay:10.37,2013-09-04 01:27:00,
2013-09-04 02:32:00,55.0,51.2,29.65,SSE,158,10.4,10.4,87,0.00,CLR,,0.00,WeatherDisplay:10.37,2013-09-04 01:32:00,
2013-09-04 02:37:00,55.0,51.2,29.64,SSE,158,9.2,9.2,87,0.00,CLR,,0.00,WeatherDisplay:10.37,2013-09-04 01:37:00,
2013-09-04 02:42:00,55.0,51.2,29.64,SSE,158,6.9,6.9,87,0.00,CLR,,0.00,WeatherDisplay:10.37,2013-09-04 01:42:00,
2013-09-04 02:47:00,55.0,51.2,29.64,South,180,5.8,5.8,87,0.00,CLR,,0.00,WeatherDisplay:10.37,2013-09-04 01:47:00,
2013-09-04 02:52:00,55.0,51.2,29.64,SSE,158,9.2,9.2,87,0.00,CLR,,0.00,WeatherDisplay:10.37,2013-09-04 01:52:00,
2013-09-04 02:57:00,55.0,51.2,29.64,SSW,202,8.1,8.6,87,0.00,CLR,,0.00,WeatherDisplay:10.37,2013-09-04 01:57:00,
2013-09-04 03:02:00,54.9,51.1,29.63,SSW,202,6.9,6.9,87,0.00,CLR,,0.00,WeatherDisplay:10.37,2013-09-04 02:02:00,
2013-09-04 03:07:00,54.9,51.1,29.63,SSE,158,8.1,8.1,87,0.00,CLR,,0.00,WeatherDisplay:10.37,2013-09-04 02:07:00,
2013-09-04 03:12:00,54.7,50.9,29.63,South,180,8.1,8.1,87,0.00,CLR,,0.00,WeatherDisplay:10.37,2013-09-04 02:12:00,
2013-09-04 03:17:00,54.7,50.9,29.62,SE,135,3.5,5.8,87,0.00,CLR,,0.00,WeatherDisplay:10.37,2013-09-04 02:17:00,
2013-09-04 03:22:00,54.7,50.9,29.62,SSE,158,3.5,6.3,87,0.00,CLR,,0.00,WeatherDisplay:10.37,2013-09-04 02:22:00,
2013-09-04 03:27:00,54.5,50.7,29.62,SE,135,4.6,7.0,87,0.00,CLR,,0.00,WeatherDisplay:10.37,2013-09-04 02:27:00,
2013-09-04 03:32:00,54.5,51.0,29.62,SSE,158,4.6,4.6,88,0.00,CLR,,0.00,WeatherDisplay:10.37,2013-09-04 02:32:00,
2013-09-04 03:37:00,54.5,51.0,29.62,SE,135,9.2,9.2,88,0.00,CLR,,0.00,WeatherDisplay:10.37,2013-09-04 02:37:00,
2013-09-04 03:42:00,54.5,51.0,29.62,South,180,6.9,6.9,88,0.00,CLR,,0.00,WeatherDisplay:10.37,2013-09-04 02:42:00,
2013-09-04 03:47:00,54.5,51.0,29.62,SSW,202,3.5,6.4,88,0.00,CLR,,0.00,WeatherDisplay:10.37,2013-09-04 02:47:00,
2013-09-04 03:52:00,54.5,51.0,29.61,SSE,158,4.6,4.6,88,0.00,CLR,,0.00,WeatherDisplay:10.37,2013-09-04 02:52:00,
2013-09-04 03:57:00,54.5,51.0,29.61,South,180,3.5,3.5,88,0.00,CLR,,0.00,WeatherDisplay:10.37,2013-09-04 02:57:00,
2013-09-04 04:02:00,54.5,51.0,29.61,SSE,158,8.1,8.5,88,0.00,CLR,,0.00,WeatherDisplay:10.37,2013-09-04 03:02:00,
2013-09-04 04:07:00,54.3,50.8,29.61,South,180,9.2,9.2,88,0.00,CLR,,0.00,WeatherDisplay:10.37,2013-09-04 03:07:00,
2013-09-04 04:12:00,54.3,50.8,29.61,South,180,8.1,8.1,88,0.00,CLR,,0.00,WeatherDisplay:10.37,2013-09-04 03:12:00,
2013-09-04 04:17:00,54.3,50.8,29.61,South,180,5.8,5.8,88,0.00,CLR,,0.00,WeatherDisplay:10.37,2013-09-04 03:17:00,
2013-09-04 04:22:00,54.3,50.8,29.61,SSW,202,4.6,4.6,88,0.00,CLR,,0.00,WeatherDisplay:10.37,2013-09-04 03:22:00,
2013-09-04 04:27:00,54.3,50.8,29.61,SSE,158,5.8,8.5,88,0.00,CLR,,0.00,WeatherDisplay:10.37,2013-09-04 03:27:00,
2013-09-04 04:32:00,54.3,51.1,29.61,South,180,9.2,9.2,89,0.00,CLR,,0.00,WeatherDisplay:10.37,2013-09-04 03:32:00,
2013-09-04 04:37:00,54.3,51.1,29.61,SSE,158,4.6,9.4,89,0.00,CLR,,0.00,WeatherDisplay:10.37,2013-09-04 03:37:00,
2013-09-04 04:42:00,54.3,50.8,29.61,South,180,5.8,5.8,88,0.00,CLR,,0.00,WeatherDisplay:10.37,2013-09-04 03:42:00,
2013-09-04 04:47:00,54.3,50.8,29.60,SE,135,8.1,8.1,88,0.00,CLR,,0.00,WeatherDisplay:10.37,2013-09-04 03:47:00,
2013-09-04 04:52:00,54.3,50.8,29.60,South,180,6.9,6.9,88,0.00,CLR,,0.00,WeatherDisplay:10.37,2013-09-04 03:52:00,
2013-09-04 04:57:00,54.1,50.7,29.60,South,180,6.9,6.9,88,0.00,CLR,,0.00,WeatherDisplay:10.37,2013-09-04 03:57:00,
2013-09-04 05:01:00,54.1,50.7,29.60,South,180,6.9,6.9,88,0.00,CLR,,0.00,WeatherDisplay:10.37,2013-09-04 04:01:00,
2013-09-04 05:02:00,54.1,50.7,29.60,South,180,6.9,6.9,88,0.00,CLR,,0.00,WeatherDisplay:10.37,2013-09-04 04:02:00,
2013-09-04 05:03:00,54.1,50.7,29.60,South,180,6.9,6.9,88,0.00,CLR,,0.00,WeatherDisplay:10.37,2013-09-04 04:03:00,
2013-09-04 05:08:00,54.1,50.7,29.60,SSE,158,3.5,3.8,88,0.00,CLR,,0.00,WeatherDisplay:10.37,2013-09-04 04:08:00,
2013-09-04 05:13:00,54.1,50.7,29.60,South,180,4.6,6.1,88,0.00,CLR,,0.00,WeatherDisplay:10.37,2013-09-04 04:13:00,
2013-09-04 05:18:00,54.1,51.0,29.59,SSE,158,9.2,9.2,89,0.00,CLR,,0.00,WeatherDisplay:10.37,2013-09-04 04:18:00,
2013-09-04 05:23:00,54.0,50.8,29.60,SSW,202,8.1,10.9,89,0.00,CLR,,0.00,WeatherDisplay:10.37,2013-09-04 04:23:00,
2013-09-04 05:28:00,54.1,51.0,29.59,SSE,158,9.2,9.2,89,0.00,CLR,,0.00,WeatherDisplay:10.37,2013-09-04 04:28:00,
2013-09-04 05:33:00,54.1,51.0,29.59,South,180,3.5,4.4,89,0.00,CLR,,0.00,WeatherDisplay:10.37,2013-09-04 04:33:00,
2013-09-04 05:38:00,54.1,51.0,29.59,SE,135,5.8,5.8,89,0.00,CLR,,0.00,WeatherDisplay:10.37,2013-09-04 04:38:00,
2013-09-04 05:43:00,54.1,51.0,29.59,SE,135,4.6,4.6,89,0.00,CLR,,0.00,WeatherDisplay:10.37,2013-09-04 04:43:00,
2013-09-04 05:48:00,54.0,50.8,29.59,South,180,12.7,12.7,89,0.00,CLR,,0.00,WeatherDisplay:10.37,2013-09-04 04:48:00,
2013-09-04 05:53:00,54.1,51.0,29.59,South,180,8.1,8.2,89,0.00,CLR,,0.00,WeatherDisplay:10.37,2013-09-04 04:53:00,
2013-09-04 05:58:00,54.0,50.8,29.58,SSE,158,8.1,8.1,89,0.00,CLR,,0.00,WeatherDisplay:10.37,2013-09-04 04:58:00,
2013-09-04 06:03:00,54.1,51.0,29.58,SSW,202,4.6,4.6,89,0.00,CLR,,0.00,WeatherDisplay:10.37,2013-09-04 05:03:00,
2013-09-04 06:08:00,54.1,51.0,29.59,South,180,8.1,8.1,89,0.00,CLR,,0.00,WeatherDisplay:10.37,2013-09-04 05:08:00,
2013-09-04 06:13:00,54.1,51.0,29.59,SSE,158,5.8,7.5,89,0.00,CLR,,0.00,WeatherDisplay:10.37,2013-09-04 05:13:00,
2013-09-04 06:18:00,54.1,51.0,29.59,SSE,158,5.8,5.8,89,0.00,CLR,,0.00,WeatherDisplay:10.37,2013-09-04 05:18:00,
2013-09-04 06:23:00,54.1,51.0,29.59,SE,135,3.5,3.5,89,0.00,CLR,,0.00,WeatherDisplay:10.37,2013-09-04 05:23:00,
2013-09-04 06:28:00,54.1,51.0,29.58,SSE,158,10.4,10.4,89,0.00,CLR,,0.00,WeatherDisplay:10.37,2013-09-04 05:28:00,
2013-09-04 06:33:00,54.0,50.8,29.58,SSW,202,4.6,5.9,89,0.00,CLR,,0.00,WeatherDisplay:10.37,2013-09-04 05:33:00,
2013-09-04 06:38:00,54.1,51.0,29.58,SSE,158,6.9,6.9,89,0.00,CLR,,0.00,WeatherDisplay:10.37,2013-09-04 05:38:00,
2013-09-04 06:43:00,54.1,51.0,29.58,SSW,202,6.9,6.9,89,0.00,CLR,,0.00,WeatherDisplay:10.37,2013-09-04 05:43:00,
2013-09-04 06:48:00,54.1,51.0,29.58,South,180,8.1,8.1,89,0.00,CLR,,0.00,WeatherDisplay:10.37,2013-09-04 05:48:00,
2013-09-04 06:53:00,54.1,51.3,29.58,South,180,6.9,8.5,90,0.00,CLR,,0.00,WeatherDisplay:10.37,2013-09-04 05:53:00,
2013-09-04 06:58:00,54.1,51.3,29.58,South,180,6.9,8.5,90,0.00,CLR,,0.00,WeatherDisplay:10.37,2013-09-04 05:58:00,
2013-09-04 07:03:00,54.1,51.3,29.58,SW,225,6.9,6.9,90,0.00,CLR,,0.00,WeatherDisplay:10.37,2013-09-04 06:03:00,
2013-09-04 07:08:00,54.3,51.4,29.58,SSW,202,10.4,10.4,90,0.00,CLR,,0.00,WeatherDisplay:10.37,2013-09-04 06:08:00,
2013-09-04 07:13:00,54.3,51.4,29.58,South,180,3.5,6.4,90,0.00,CLR,,0.00,WeatherDisplay:10.37,2013-09-04 06:13:00,
2013-09-04 07:18:00,54.3,51.4,29.58,South,180,5.8,5.8,90,0.00,CLR,,0.00,WeatherDisplay:10.37,2013-09-04 06:18:00,
2013-09-04 07:23:00,54.5,51.6,29.58,SE,135,8.1,8.1,90,0.00,CLR,,0.00,WeatherDisplay:10.37,2013-09-04 06:23:00,
2013-09-04 07:28:00,54.3,51.4,29.57,SSE,158,3.5,6.8,90,0.00,CLR,,0.00,WeatherDisplay:10.37,2013-09-04 06:28:00,
2013-09-04 07:33:00,54.5,51.6,29.57,South,180,3.5,3.5,90,0.00,CLR,,0.00,WeatherDisplay:10.37,2013-09-04 06:33:00,
2013-09-04 07:38:00,54.5,51.6,29.57,SSE,158,4.6,4.6,90,0.00,CLR,,0.00,WeatherDisplay:10.37,2013-09-04 06:38:00,
2013-09-04 07:43:00,54.3,51.4,29.57,SSE,158,10.4,10.4,90,0.00,CLR,,0.00,WeatherDisplay:10.37,2013-09-04 06:43:00,
2013-09-04 07:48:00,54.3,51.4,29.57,SSW,202,5.8,6.9,90,0.00,CLR,,0.00,WeatherDisplay:10.37,2013-09-04 06:48:00,
2013-09-04 07:53:00,54.5,51.6,29.57,SSE,158,6.9,6.9,90,0.00,CLR,,0.00,WeatherDisplay:10.37,2013-09-04 06:53:00,
2013-09-04 07:58:00,54.5,51.6,29.57,SSE,158,8.1,8.1,90,0.00,CLR,,0.00,WeatherDisplay:10.37,2013-09-04 06:58:00,
2013-09-04 08:03:00,54.5,51.3,29.57,SSW,202,5.8,5.8,89,0.00,CLR,,0.00,WeatherDisplay:10.37,2013-09-04 07:03:00,
2013-09-04 08:08:00,54.5,51.3,29.57,South,180,5.8,8.3,89,0.00,CLR,,0.00,WeatherDisplay:10.37,2013-09-04 07:08:00,
2013-09-04 08:13:00,54.7,51.5,29.57,SE,135,8.1,8.4,89,0.00,CLR,,0.00,WeatherDisplay:10.37,2013-09-04 07:13:00,
2013-09-04 08:18:00,54.7,51.5,29.57,SSW,202,10.4,10.4,89,0.00,CLR,,0.00,WeatherDisplay:10.37,2013-09-04 07:18:00,
2013-09-04 08:23:00,54.9,51.7,29.57,SSW,202,8.1,8.1,89,0.00,CLR,,0.00,WeatherDisplay:10.37,2013-09-04 07:23:00,
2013-09-04 08:28:00,54.9,51.7,29.57,East,90,8.1,8.1,89,0.00,CLR,,0.00,WeatherDisplay:10.37,2013-09-04 07:28:00,
2013-09-04 08:33:00,55.0,51.9,29.57,South,180,10.4,10.4,89,0.00,CLR,,0.00,WeatherDisplay:10.37,2013-09-04 07:33:00,
2013-09-04 08:38:00,55.2,52.0,29.57,SSE,158,10.4,11.6,89,0.00,CLR,,0.00,WeatherDisplay:10.37,2013-09-04 07:38:00,
2013-09-04 08:43:00,55.2,51.7,29.57,South,180,5.8,5.8,88,0.00,CLR,,0.00,WeatherDisplay:10.37,2013-09-04 07:43:00,
2013-09-04 08:48:00,55.2,51.7,29.57,SSE,158,5.8,5.8,88,0.00,CLR,,0.00,WeatherDisplay:10.37,2013-09-04 07:48:00,
2013-09-04 08:53:00,55.6,52.1,29.57,South,180,10.4,10.7,88,0.00,CLR,,0.00,WeatherDisplay:10.37,2013-09-04 07:53:00,
2013-09-04 08:58:00,55.6,52.1,29.57,ESE,112,11.5,11.5,88,0.00,CLR,,0.00,WeatherDisplay:10.37,2013-09-04 07:58:00,
2013-09-04 09:03:00,55.6,52.1,29.57,SE,135,3.5,7.1,88,0.00,CLR,,0.00,WeatherDisplay:10.37,2013-09-04 08:03:00,
2013-09-04 09:08:00,55.8,51.9,29.57,SE,135,9.2,9.2,87,0.00,CLR,,0.00,WeatherDisplay:10.37,2013-09-04 08:08:00,
2013-09-04 09:13:00,55.9,52.1,29.57,WSW,248,9.2,9.2,87,0.00,CLR,,0.00,WeatherDisplay:10.37,2013-09-04 08:13:00,
2013-09-04 09:18:00,56.1,52.3,29.57,SE,135,10.4,10.4,87,0.00,CLR,,0.00,WeatherDisplay:10.37,2013-09-04 08:18:00,
2013-09-04 09:23:00,56.5,52.7,29.57,South,180,9.2,9.2,87,0.00,CLR,,0.00,WeatherDisplay:10.37,2013-09-04 08:23:00,
2013-09-04 09:28:00,56.5,52.7,29.57,SSE,158,3.5,3.8,87,0.00,CLR,,0.00,WeatherDisplay:10.37,2013-09-04 08:28:00,
2013-09-04 09:33:00,56.5,52.3,29.57,SSW,202,15.0,15.0,86,0.00,CLR,,0.00,WeatherDisplay:10.37,2013-09-04 08:33:00,
2013-09-04 09:38:00,56.8,52.4,29.56,SSE,158,11.5,12.0,85,0.00,CLR,,0.00,WeatherDisplay:10.37,2013-09-04 08:38:00,
2013-09-04 09:43:00,56.8,52.4,29.57,SSW,202,18.4,18.4,85,0.00,CLR,,0.00,WeatherDisplay:10.37,2013-09-04 08:43:00,
2013-09-04 09:48:00,56.8,52.1,29.57,SSW,202,9.2,9.2,84,0.00,CLR,,0.00,WeatherDisplay:10.37,2013-09-04 08:48:00,
2013-09-04 09:53:00,57.0,52.2,29.57,SSW,202,11.5,11.5,84,0.00,CLR,,0.00,WeatherDisplay:10.37,2013-09-04 08:53:00,
2013-09-04 09:58:00,57.0,52.2,29.57,SSW,202,11.5,12.1,84,0.00,CLR,,0.00,WeatherDisplay:10.37,2013-09-04 08:58:00,
2013-09-04 10:03:00,57.0,52.2,29.57,SSW,202,18.4,18.4,84,0.00,CLR,,0.00,WeatherDisplay:10.37,2013-09-04 09:03:00,
2013-09-04 10:08:00,57.0,51.9,29.57,South,180,9.2,9.2,83,0.00,CLR,,0.00,WeatherDisplay:10.37,2013-09-04 09:08:00,
2013-09-04 10:13:00,57.0,51.9,29.55,SSE,158,12.7,12.7,83,0.00,CLR,,0.00,WeatherDisplay:10.37,2013-09-04 09:13:00,
2013-09-04 10:18:00,57.0,51.9,29.55,South,180,12.7,12.7,83,0.00,CLR,,0.00,WeatherDisplay:10.37,2013-09-04 09:18:00,
2013-09-04 10:23:00,57.4,51.9,29.55,SSW,202,16.1,16.1,82,0.00,CLR,,0.00,WeatherDisplay:10.37,2013-09-04 09:23:00,
2013-09-04 10:28:00,57.4,51.9,29.55,SSW,202,16.1,16.3,82,0.00,CLR,,0.00,WeatherDisplay:10.37,2013-09-04 09:28:00,
2013-09-04 10:33:00,57.4,51.9,29.55,SE,135,8.1,8.3,82,0.00,CLR,,0.00,WeatherDisplay:10.37,2013-09-04 09:33:00,
2013-09-04 10:38:00,57.6,51.8,29.55,SE,135,4.6,9.5,81,0.00,CLR,,0.00,WeatherDisplay:10.37,2013-09-04 09:38:00,
2013-09-04 10:43:00,57.7,51.9,29.55,SSE,158,8.1,8.1,81,0.00,CLR,,0.00,WeatherDisplay:10.37,2013-09-04 09:43:00,
2013-09-04 10:48:00,57.7,51.9,29.55,South,180,9.2,9.2,81,0.00,CLR,,0.00,WeatherDisplay:10.37,2013-09-04 09:48:00,
2013-09-04 10:53:00,57.7,51.9,29.55,SW,225,12.7,12.7,81,0.00,CLR,,0.00,WeatherDisplay:10.37,2013-09-04 09:53:00,
2013-09-04 10:58:00,57.7,51.9,29.55,South,180,5.8,6.0,81,0.00,CLR,,0.00,WeatherDisplay:10.37,2013-09-04 09:58:00,
2013-09-04 11:03:00,57.9,52.1,29.55,SSW,202,8.1,8.2,81,0.00,CLR,,0.00,WeatherDisplay:10.37,2013-09-04 10:03:00,
2013-09-04 11:08:00,57.9,51.8,29.55,South,180,3.5,6.3,80,0.00,CLR,,0.00,WeatherDisplay:10.37,2013-09-04 10:08:00,
2013-09-04 11:13:00,58.1,52.0,29.55,SSW,202,8.1,8.1,80,0.00,CLR,,0.00,WeatherDisplay:10.37,2013-09-04 10:13:00,
2013-09-04 11:18:00,58.3,51.8,29.54,SSE,158,5.8,5.8,79,0.00,CLR,,0.00,WeatherDisplay:10.37,2013-09-04 10:18:00,
2013-09-04 11:23:00,58.6,52.1,29.54,SE,135,11.5,11.5,79,0.00,CLR,,0.00,WeatherDisplay:10.37,2013-09-04 10:23:00,
2013-09-04 11:28:00,58.6,52.1,29.54,SE,135,6.9,6.9,79,0.00,CLR,,0.00,WeatherDisplay:10.37,2013-09-04 10:28:00,
2013-09-04 11:33:00,58.8,52.3,29.54,SW,225,11.5,11.5,79,0.00,CLR,,0.00,WeatherDisplay:10.37,2013-09-04 10:33:00,
2013-09-04 11:38:00,58.8,52.0,29.54,South,180,15.0,15.0,78,0.00,CLR,,0.00,WeatherDisplay:10.37,2013-09-04 10:38:00,
2013-09-04 11:43:00,59.0,52.1,29.53,South,180,10.4,10.4,78,0.00,CLR,,0.00,WeatherDisplay:10.37,2013-09-04 10:43:00,
2013-09-04 11:48:00,59.0,52.1,29.53,SSE,158,5.8,7.9,78,0.00,CLR,,0.00,WeatherDisplay:10.37,2013-09-04 10:48:00,
2013-09-04 11:53:00,59.2,52.0,29.54,SSE,158,13.8,13.8,77,0.00,CLR,,0.00,WeatherDisplay:10.37,2013-09-04 10:53:00,
2013-09-04 11:58:00,59.2,52.0,29.54,SSE,158,15.0,15.0,77,0.00,CLR,,0.00,WeatherDisplay:10.37,2013-09-04 10:58:00,
2013-09-04 12:03:00,59.2,52.0,29.54,South,180,12.7,12.7,77,0.00,CLR,,0.00,WeatherDisplay:10.37,2013-09-04 11:03:00,
2013-09-04 12:08:00,59.4,51.8,29.53,SSE,158,13.8,13.8,76,0.00,CLR,,0.00,WeatherDisplay:10.37,2013-09-04 11:08:00,
2013-09-04 12:13:00,59.5,52.0,29.53,SSW,202,11.5,11.5,76,0.00,CLR,,0.00,WeatherDisplay:10.37,2013-09-04 11:13:00,
2013-09-04 12:18:00,59.5,52.0,29.53,SSW,202,9.2,11.1,76,0.00,CLR,,0.00,WeatherDisplay:10.37,2013-09-04 11:18:00,
2013-09-04 12:23:00,59.9,52.3,29.53,SE,135,9.2,9.2,76,0.00,CLR,,0.00,WeatherDisplay:10.37,2013-09-04 11:23:00,
2013-09-04 12:28:00,60.1,52.5,29.53,SSW,202,9.2,9.6,76,0.00,CLR,,0.00,WeatherDisplay:10.37,2013-09-04 11:28:00,
2013-09-04 12:33:00,60.1,52.5,29.53,SE,135,8.1,8.1,76,0.00,CLR,,0.00,WeatherDisplay:10.37,2013-09-04 11:33:00,
2013-09-04 12:38:00,60.1,52.1,29.53,SSE,158,10.4,10.4,75,0.00,CLR,,0.00,WeatherDisplay:10.37,2013-09-04 11:38:00,
2013-09-04 12:43:00,60.1,52.1,29.53,SE,135,12.7,12.7,75,0.00,CLR,,0.00,WeatherDisplay:10.37,2013-09-04 11:43:00,
2013-09-04 12:48:00,60.1,52.1,29.53,SSW,202,18.4,18.4,75,0.00,CLR,,0.00,WeatherDisplay:10.37,2013-09-04 11:48:00,
2013-09-04 12:53:00,59.9,52.0,29.52,SSE,158,11.5,11.5,75,0.00,CLR,,0.00,WeatherDisplay:10.37,2013-09-04 11:53:00,
2013-09-04 12:58:00,60.1,52.1,29.52,SE,135,17.3,17.4,75,0.00,CLR,,0.00,WeatherDisplay:10.37,2013-09-04 11:58:00,
2013-09-04 13:03:00,60.1,52.1,29.52,SSE,158,9.2,9.2,75,0.00,CLR,,0.00,WeatherDisplay:10.37,2013-09-04 12:03:00,
2013-09-04 13:08:00,60.4,52.5,29.51,SSE,158,6.9,12.5,75,0.00,CLR,,0.00,WeatherDisplay:10.37,2013-09-04 12:08:00,
2013-09-04 13:13:00,60.6,53.0,29.51,SSE,158,6.9,6.9,76,0.00,CLR,,0.00,WeatherDisplay:10.37,2013-09-04 12:13:00,
2013-09-04 13:18:00,60.8,52.8,29.51,SSE,158,9.2,10.5,75,0.00,CLR,,0.00,WeatherDisplay:10.37,2013-09-04 12:18:00,
2013-09-04 13:23:00,61.2,52.8,29.51,SSW,202,5.8,5.8,74,0.00,CLR,,0.00,WeatherDisplay:10.37,2013-09-04 12:23:00,
2013-09-04 13:28:00,61.3,53.0,29.51,SSE,158,8.1,9.5,74,0.00,CLR,,0.00,WeatherDisplay:10.37,2013-09-04 12:28:00,
2013-09-04 13:33:00,61.3,53.0,29.52,South,180,8.1,8.1,74,0.00,CLR,,0.00,WeatherDisplay:10.37,2013-09-04 12:33:00,
2013-09-04 13:38:00,61.5,53.2,29.52,SE,135,9.2,11.3,74,0.00,CLR,,0.00,WeatherDisplay:10.37,2013-09-04 12:38:00,
2013-09-04 13:43:00,61.5,52.8,29.52,SSE,158,11.5,11.5,73,0.00,CLR,,0.00,WeatherDisplay:10.37,2013-09-04 12:43:00,
2013-09-04 13:48:00,61.5,52.8,29.52,South,180,9.2,10.3,73,0.00,CLR,,0.00,WeatherDisplay:10.37,2013-09-04 12:48:00,
2013-09-04 13:53:00,61.5,52.8,29.52,SSE,158,15.0,15.0,73,0.00,CLR,,0.00,WeatherDisplay:10.37,2013-09-04 12:53:00,
2013-09-04 13:58:00,61.5,52.8,29.52,SSE,158,6.9,11.3,73,0.00,CLR,,0.00,WeatherDisplay:10.37,2013-09-04 12:58:00,
2013-09-04 14:03:00,61.5,52.4,29.51,SSW,202,10.4,10.4,72,0.00,CLR,,0.00,WeatherDisplay:10.37,2013-09-04 13:03:00,
2013-09-04 14:08:00,61.5,52.8,29.51,South,180,5.8,5.8,73,0.00,CLR,,0.00,WeatherDisplay:10.37,2013-09-04 13:08:00,
2013-09-04 14:13:00,61.7,53.0,29.51,SSW,202,11.5,11.5,73,0.00,CLR,,0.00,WeatherDisplay:10.37,2013-09-04 13:13:00,
2013-09-04 14:18:00,61.9,53.1,29.51,SW,225,6.9,9.0,73,0.00,CLR,,0.00,WeatherDisplay:10.37,2013-09-04 13:18:00,
2013-09-04 14:23:00,62.2,53.5,29.51,SSE,158,19.6,19.6,73,0.00,CLR,,0.00,WeatherDisplay:10.37,2013-09-04 13:23:00,
2013-09-04 14:28:00,62.4,53.6,29.50,South,180,6.9,6.9,73,0.00,CLR,,0.00,WeatherDisplay:10.37,2013-09-04 13:28:00,
2013-09-04 14:33:00,62.4,54.0,29.50,SSE,158,11.5,11.5,74,0.00,CLR,,0.00,WeatherDisplay:10.37,2013-09-04 13:33:00,
2013-09-04 14:38:00,62.4,53.6,29.50,SSW,202,10.4,10.6,73,0.00,CLR,,0.00,WeatherDisplay:10.37,2013-09-04 13:38:00,
2013-09-04 14:43:00,63.0,53.8,29.50,South,180,10.4,10.4,72,0.00,CLR,,0.00,WeatherDisplay:10.37,2013-09-04 13:43:00,
2013-09-04 14:48:00,63.1,54.0,29.50,South,180,4.6,9.2,72,0.00,CLR,,0.00,WeatherDisplay:10.37,2013-09-04 13:48:00,
2013-09-04 14:53:00,63.1,54.0,29.50,South,180,9.2,9.2,72,0.00,CLR,,0.00,WeatherDisplay:10.37,2013-09-04 13:53:00,
2013-09-04 14:58:00,63.3,54.1,29.50,SE,135,6.9,6.9,72,0.00,CLR,,0.00,WeatherDisplay:10.37,2013-09-04 13:58:00,
2013-09-04 15:03:00,63.3,54.1,29.49,SE,135,11.5,11.5,72,0.00,CLR,,0.00,WeatherDisplay:10.37,2013-09-04 14:03:00,
2013-09-04 15:08:00,63.5,54.3,29.49,SSE,158,5.8,8.4,72,0.00,CLR,,0.00,WeatherDisplay:10.37,2013-09-04 14:08:00,
2013-09-04 15:13:00,63.7,54.5,29.49,SSW,202,10.4,10.4,72,0.00,CLR,,0.00,WeatherDisplay:10.37,2013-09-04 14:13:00,
2013-09-04 15:18:00,63.7,54.5,29.49,SSE,158,9.2,9.2,72,0.00,CLR,,0.00,WeatherDisplay:10.37,2013-09-04 14:18:00,
2013-09-04 15:23:00,64.0,54.8,29.48,SE,135,11.5,11.5,72,0.00,CLR,,0.00,WeatherDisplay:10.37,2013-09-04 14:23:00,
2013-09-04 15:28:00,64.0,54.8,29.48,SSE,158,8.1,11.1,72,0.00,CLR,,0.00,WeatherDisplay:10.37,2013-09-04 14:28:00,
2013-09-04 15:33:00,64.0,54.8,29.48,SE,135,10.4,10.4,72,0.00,CLR,,0.00,WeatherDisplay:10.37,2013-09-04 14:33:00,
2013-09-04 15:38:00,64.0,54.8,29.48,South,180,11.5,11.5,72,0.00,CLR,,0.00,WeatherDisplay:10.37,2013-09-04 14:38:00,
2013-09-04 15:43:00,64.0,54.8,29.48,SSE,158,8.1,8.1,72,0.00,CLR,,0.00,WeatherDisplay:10.37,2013-09-04 14:43:00,
2013-09-04 15:48:00,64.0,54.1,29.47,South,180,10.4,10.4,70,0.00,CLR,,0.00,WeatherDisplay:10.37,2013-09-04 14:48:00,
2013-09-04 15:53:00,64.0,54.4,29.47,South,180,8.1,9.0,71,0.00,CLR,,0.00,WeatherDisplay:10.37,2013-09-04 14:53:00,
2013-09-04 15:58:00,64.2,54.2,29.47,South,180,15.0,15.0,70,0.00,CLR,,0.00,WeatherDisplay:10.37,2013-09-04 14:58:00,
2013-09-04 16:03:00,64.0,54.4,29.47,South,180,13.8,13.8,71,0.00,CLR,,0.00,WeatherDisplay:10.37,2013-09-04 15:03:00,
2013-09-04 16:08:00,64.0,54.4,29.47,SSE,158,10.4,10.4,71,0.00,CLR,,0.00,WeatherDisplay:10.37,2013-09-04 15:08:00,
2013-09-04 16:13:00,64.2,54.2,29.47,South,180,2.3,11.1,70,0.00,CLR,,0.00,WeatherDisplay:10.37,2013-09-04 15:13:00,
2013-09-04 16:18:00,64.0,54.1,29.47,SSE,158,10.4,10.4,70,0.00,CLR,,0.00,WeatherDisplay:10.37,2013-09-04 15:18:00,
2013-09-04 16:23:00,64.0,54.1,29.47,SSE,158,10.4,10.4,70,0.00,CLR,,0.00,WeatherDisplay:10.37,2013-09-04 15:23:00,
2013-09-04 16:28:00,64.0,54.1,29.46,SSE,158,8.1,8.1,70,0.00,CLR,,0.00,WeatherDisplay:10.37,2013-09-04 15:28:00,
2013-09-04 16:33:00,64.0,54.1,29.46,SE,135,8.1,8.1,70,0.00,CLR,,0.00,WeatherDisplay:10.37,2013-09-04 15:33:00,
2013-09-04 16:38:00,64.0,54.1,29.46,SSE,158,5.8,5.9,70,0.00,CLR,,0.00,WeatherDisplay:10.37,2013-09-04 15:38:00,
2013-09-04 16:43:00,64.0,54.1,29.46,SE,135,8.1,8.1,70,0.00,CLR,,0.00,WeatherDisplay:10.37,2013-09-04 15:43:00,
2013-09-04 16:48:00,64.0,54.1,29.46,SE,135,18.4,18.4,70,0.00,CLR,,0.00,WeatherDisplay:10.37,2013-09-04 15:48:00,
2013-09-04 16:53:00,64.0,54.1,29.46,SSE,158,9.2,14.3,70,0.00,CLR,,0.00,WeatherDisplay:10.37,2013-09-04 15:53:00,
2013-09-04 16:58:00,64.0,54.1,29.46,ENE,68,5.8,5.9,70,0.00,CLR,,0.00,WeatherDisplay:10.37,2013-09-04 15:58:00,
2013-09-04 17:03:00,64.0,53.7,29.46,SSE,158,10.4,10.4,69,0.00,CLR,,0.00,WeatherDisplay:10.37,2013-09-04 16:03:00,
2013-09-04 17:08:00,63.7,53.3,29.46,South,180,15.0,15.0,69,0.00,CLR,,0.00,WeatherDisplay:10.37,2013-09-04 16:08:00,
2013-09-04 17:13:00,63.7,53.3,29.46,SSE,158,8.1,11.1,69,0.00,CLR,,0.00,WeatherDisplay:10.37,2013-09-04 16:13:00,
2013-09-04 17:18:00,63.7,53.3,29.46,SSE,158,4.6,5.0,69,0.00,CLR,,0.00,WeatherDisplay:10.37,2013-09-04 16:18:00,
2013-09-04 17:23:00,63.5,53.1,29.45,SSE,158,8.1,8.1,69,0.00,CLR,,0.00,WeatherDisplay:10.37,2013-09-04 16:23:00,
2013-09-04 17:28:00,63.3,53.4,29.45,SSW,202,9.2,9.2,70,0.00,CLR,,0.00,WeatherDisplay:10.37,2013-09-04 16:28:00,
2013-09-04 17:33:00,63.3,53.4,29.45,SW,225,9.2,9.5,70,0.00,CLR,,0.00,WeatherDisplay:10.37,2013-09-04 16:33:00,
2013-09-04 17:38:00,63.1,53.2,29.44,SSW,202,9.2,9.2,70,0.00,CLR,,0.00,WeatherDisplay:10.37,2013-09-04 16:38:00,
2013-09-04 17:43:00,63.1,53.2,29.44,SSW,202,11.5,11.5,70,0.00,CLR,,0.00,WeatherDisplay:10.37,2013-09-04 16:43:00,
2013-09-04 17:48:00,63.1,53.2,29.44,SSE,158,12.7,12.7,70,0.00,CLR,,0.00,WeatherDisplay:10.37,2013-09-04 16:48:00,
2013-09-04 17:53:00,63.0,53.0,29.44,ESE,112,8.1,8.1,70,0.00,CLR,,0.00,WeatherDisplay:10.37,2013-09-04 16:53:00,
2013-09-04 17:58:00,62.8,52.5,29.44,SSE,158,18.4,18.4,69,0.00,CLR,,0.00,WeatherDisplay:10.37,2013-09-04 16:58:00,
2013-09-04 18:03:00,62.8,52.8,29.44,SSE,158,8.1,8.1,70,0.00,CLR,,0.00,WeatherDisplay:10.37,2013-09-04 17:03:00,
2013-09-04 18:08:00,62.4,52.5,29.44,SE,135,15.0,15.0,70,0.00,CLR,,0.00,WeatherDisplay:10.37,2013-09-04 17:08:00,
2013-09-04 18:13:00,62.4,52.1,29.44,South,180,12.7,14.5,69,0.00,CLR,,0.00,WeatherDisplay:10.37,2013-09-04 17:13:00,
2013-09-04 18:18:00,62.4,52.1,29.44,SW,225,6.9,6.9,69,0.00,CLR,,0.00,WeatherDisplay:10.37,2013-09-04 17:18:00,
2013-09-04 18:23:00,62.2,51.9,29.44,SSW,202,8.1,8.1,69,0.00,CLR,,0.00,WeatherDisplay:10.37,2013-09-04 17:23:00,
2013-09-04 18:28:00,62.2,51.9,29.44,SE,135,9.2,9.2,69,0.00,CLR,,0.00,WeatherDisplay:10.37,2013-09-04 17:28:00,
2013-09-04 18:33:00,62.1,51.8,29.44,South,180,5.8,8.4,69,0.00,CLR,,0.00,WeatherDisplay:10.37,2013-09-04 17:33:00,
2013-09-04 18:38:00,61.9,51.6,29.44,SSW,202,9.2,9.2,69,0.00,CLR,,0.00,WeatherDisplay:10.37,2013-09-04 17:38:00,
2013-09-04 18:43:00,61.9,52.0,29.44,South,180,9.2,9.2,70,0.00,CLR,,0.00,WeatherDisplay:10.37,2013-09-04 17:43:00,
2013-09-04 18:48:00,61.7,51.8,29.44,South,180,5.8,5.8,70,0.00,CLR,,0.00,WeatherDisplay:10.37,2013-09-04 17:48:00,
2013-09-04 18:53:00,61.7,51.8,29.44,SE,135,6.9,6.9,70,0.00,CLR,,0.00,WeatherDisplay:10.37,2013-09-04 17:53:00,
2013-09-04 18:58:00,61.7,51.8,29.44,SSE,158,10.4,10.4,70,0.00,CLR,,0.00,WeatherDisplay:10.37,2013-09-04 17:58:00,
2013-09-04 19:03:00,61.7,51.8,29.44,SSE,158,10.4,10.4,70,0.00,CLR,,0.00,WeatherDisplay:10.37,2013-09-04 18:03:00,
2013-09-04 19:08:00,61.7,51.8,29.44,SSE,158,10.4,10.4,70,0.00,CLR,,0.00,WeatherDisplay:10.37,2013-09-04 18:08:00,
2013-09-04 19:13:00,61.7,51.8,29.44,South,180,8.1,9.9,70,0.00,CLR,,0.00,WeatherDisplay:10.37,2013-09-04 18:13:00,
2013-09-04 19:18:00,61.0,51.5,29.44,SSW,202,6.9,6.9,71,0.00,CLR,,0.00,WeatherDisplay:10.37,2013-09-04 18:18:00,
2013-09-04 19:23:00,60.8,51.3,29.44,South,180,9.2,9.2,71,0.00,CLR,,0.00,WeatherDisplay:10.37,2013-09-04 18:23:00,
2013-09-04 19:28:00,60.6,51.2,29.44,SSE,158,9.2,9.2,71,0.00,CLR,,0.00,WeatherDisplay:10.37,2013-09-04 18:28:00,
2013-09-04 19:33:00,60.6,51.5,29.44,South,180,4.6,4.6,72,0.00,CLR,,0.00,WeatherDisplay:10.37,2013-09-04 18:33:00,
2013-09-04 19:38:00,60.4,51.4,29.43,SSW,202,3.5,5.8,72,0.00,CLR,,0.00,WeatherDisplay:10.37,2013-09-04 18:38:00,
2013-09-04 19:43:00,60.4,51.4,29.43,SW,225,6.9,6.9,72,0.00,CLR,,0.00,WeatherDisplay:10.37,2013-09-04 18:43:00,
2013-09-04 19:48:00,60.1,51.0,29.43,South,180,4.6,4.6,72,0.00,CLR,,0.00,WeatherDisplay:10.37,2013-09-04 18:48:00,
2013-09-04 19:53:00,60.1,51.4,29.44,SSE,158,3.5,4.9,73,0.00,CLR,,0.00,WeatherDisplay:10.37,2013-09-04 18:53:00,
2013-09-04 19:58:00,59.7,51.0,29.44,SSE,158,5.8,6.3,73,0.00,CLR,,0.00,WeatherDisplay:10.37,2013-09-04 18:58:00,
2013-09-04 20:03:00,59.5,50.9,29.44,South,180,5.8,7.4,73,0.00,CLR,,0.00,WeatherDisplay:10.37,2013-09-04 19:03:00,
2013-09-04 20:08:00,59.4,50.3,29.43,South,180,6.9,6.9,72,0.00,CLR,,0.00,WeatherDisplay:10.37,2013-09-04 19:08:00,
2013-09-04 20:13:00,59.2,50.2,29.43,South,180,3.5,3.5,72,0.00,CLR,,0.00,WeatherDisplay:10.37,2013-09-04 19:13:00,
2013-09-04 20:18:00,59.2,50.2,29.43,SW,225,3.5,4.0,72,0.00,CLR,,0.00,WeatherDisplay:10.37,2013-09-04 19:18:00,
2013-09-04 20:23:00,59.0,50.0,29.43,South,180,4.6,4.6,72,0.00,CLR,,0.00,WeatherDisplay:10.37,2013-09-04 19:23:00,
2013-09-04 20:28:00,58.8,49.8,29.43,SSE,158,2.3,2.3,72,0.00,CLR,,0.00,WeatherDisplay:10.37,2013-09-04 19:28:00,
2013-09-04 20:33:00,58.8,49.8,29.43,SSW,202,2.3,2.3,72,0.00,CLR,,0.00,WeatherDisplay:10.37,2013-09-04 19:33:00,
2013-09-04 20:38:00,58.6,49.6,29.43,SSE,158,4.6,4.6,72,0.00,CLR,,0.00,WeatherDisplay:10.37,2013-09-04 19:38:00,
2013-09-04 20:43:00,58.6,49.6,29.43,SSE,158,0.0,2.1,72,0.00,CLR,,0.00,WeatherDisplay:10.37,2013-09-04 19:43:00,
2013-09-04 20:48:00,58.3,49.3,29.43,SSW,202,3.5,3.5,72,0.00,CLR,,0.00,WeatherDisplay:10.37,2013-09-04 19:48:00,
2013-09-04 20:53:00,58.3,49.7,29.43,SSE,158,2.3,3.5,73,0.00,CLR,,0.00,WeatherDisplay:10.37,2013-09-04 19:53:00,
2013-09-04 20:58:00,57.9,49.7,29.43,SSE,158,4.6,4.6,74,0.00,CLR,,0.00,WeatherDisplay:10.37,2013-09-04 19:58:00,
2013-09-04 21:03:00,57.9,49.7,29.43,SSE,158,8.1,8.1,74,0.00,CLR,,0.00,WeatherDisplay:10.37,2013-09-04 20:03:00,
2013-09-04 21:08:00,57.7,49.9,29.43,SE,135,5.8,5.8,75,0.00,CLR,,0.00,WeatherDisplay:10.37,2013-09-04 20:08:00,
2013-09-04 21:13:00,57.7,49.9,29.43,South,180,4.6,4.6,75,0.00,CLR,,0.00,WeatherDisplay:10.37,2013-09-04 20:13:00,
2013-09-04 21:18:00,57.6,50.0,29.43,SW,225,6.9,7.2,76,0.00,CLR,,0.00,WeatherDisplay:10.37,2013-09-04 20:18:00,
2013-09-04 21:23:00,57.6,50.4,29.43,South,180,6.9,10.0,77,0.00,CLR,,0.00,WeatherDisplay:10.37,2013-09-04 20:23:00,
2013-09-04 21:28:00,57.4,50.2,29.43,SSE,158,9.2,9.2,77,0.00,CLR,,0.00,WeatherDisplay:10.37,2013-09-04 20:28:00,
2013-09-04 21:33:00,57.4,50.6,29.43,ESE,112,8.1,8.1,78,0.00,CLR,,0.00,WeatherDisplay:10.37,2013-09-04 20:33:00,
2013-09-04 21:38:00,57.4,50.6,29.42,SSE,158,11.5,11.5,78,0.00,CLR,,0.00,WeatherDisplay:10.37,2013-09-04 20:38:00,
2013-09-04 21:43:00,57.4,50.6,29.42,South,180,4.6,5.6,78,0.00,CLR,,0.00,WeatherDisplay:10.37,2013-09-04 20:43:00,
2013-09-04 21:48:00,57.2,50.4,29.42,South,180,8.1,8.1,78,0.00,CLR,,0.00,WeatherDisplay:10.37,2013-09-04 20:48:00,
2013-09-04 21:53:00,57.2,50.4,29.42,SE,135,5.8,7.8,78,0.00,CLR,,0.00,WeatherDisplay:10.37,2013-09-04 20:53:00,
2013-09-04 21:58:00,57.0,50.2,29.42,SSE,158,6.9,6.9,78,0.00,CLR,,0.00,WeatherDisplay:10.37,2013-09-04 20:58:00,
2013-09-04 22:03:00,57.0,50.2,29.42,SE,135,2.3,4.0,78,0.00,CLR,,0.00,WeatherDisplay:10.37,2013-09-04 21:03:00,
2013-09-04 22:08:00,57.0,50.2,29.41,SE,135,8.1,8.1,78,0.00,CLR,,0.00,WeatherDisplay:10.37,2013-09-04 21:08:00,
2013-09-04 22:13:00,57.0,50.2,29.41,South,180,3.5,4.7,78,0.00,CLR,,0.00,WeatherDisplay:10.37,2013-09-04 21:13:00,
2013-09-04 22:18:00,56.8,50.1,29.41,SSE,158,3.5,3.8,78,0.00,CLR,,0.00,WeatherDisplay:10.37,2013-09-04 21:18:00,
2013-09-04 22:23:00,56.8,50.1,29.41,South,180,5.8,7.8,78,0.00,CLR,,0.00,WeatherDisplay:10.37,2013-09-04 21:23:00,
2013-09-04 22:28:00,56.8,50.1,29.41,SE,135,8.1,8.1,78,0.00,CLR,,0.00,WeatherDisplay:10.37,2013-09-04 21:28:00,
2013-09-04 22:33:00,56.5,49.7,29.41,SE,135,2.3,4.4,78,0.00,CLR,,0.00,WeatherDisplay:10.37,2013-09-04 21:33:00,
2013-09-04 22:38:00,56.5,49.7,29.40,SE,135,5.8,5.8,78,0.00,CLR,,0.00,WeatherDisplay:10.37,2013-09-04 21:38:00,
2013-09-04 22:43:00,56.5,49.7,29.40,SE,135,3.5,3.5,78,0.00,CLR,,0.00,WeatherDisplay:10.37,2013-09-04 21:43:00,
2013-09-04 22:48:00,56.5,49.7,29.41,South,180,4.6,4.7,78,0.00,CLR,,0.00,WeatherDisplay:10.37,2013-09-04 21:48:00,
2013-09-04 22:53:00,56.5,49.7,29.41,South,180,6.9,6.9,78,0.00,CLR,,0.00,WeatherDisplay:10.37,2013-09-04 21:53:00,
2013-09-04 22:58:00,56.5,49.7,29.41,SSE,158,4.6,4.6,78,0.00,CLR,,0.00,WeatherDisplay:10.37,2013-09-04 21:58:00,
2013-09-04 23:03:00,56.5,49.7,29.41,SSE,158,4.6,4.6,78,0.00,CLR,,0.00,WeatherDisplay:10.37,2013-09-04 22:03:00,
2013-09-04 23:08:00,56.3,49.5,29.40,SE,135,4.6,4.6,78,0.00,CLR,,0.00,WeatherDisplay:10.37,2013-09-04 22:08:00,
2013-09-04 23:13:00,56.3,49.5,29.40,ESE,112,6.9,6.9,78,0.00,CLR,,0.00,WeatherDisplay:10.37,2013-09-04 22:13:00,
2013-09-04 23:18:00,56.1,49.4,29.40,ESE,112,3.5,3.8,78,0.00,CLR,,0.00,WeatherDisplay:10.37,2013-09-04 22:18:00,
2013-09-04 23:23:00,56.1,49.4,29.40,SE,135,5.8,5.8,78,0.00,CLR,,0.00,WeatherDisplay:10.37,2013-09-04 22:23:00,
2013-09-04 23:28:00,56.1,49.4,29.40,ESE,112,3.5,3.5,78,0.00,CLR,,0.00,WeatherDisplay:10.37,2013-09-04 22:28:00,
2013-09-04 23:33:00,56.1,49.4,29.40,ESE,112,2.3,2.5,78,0.00,CLR,,0.00,WeatherDisplay:10.37,2013-09-04 22:33:00,
2013-09-04 23:38:00,55.9,49.2,29.40,WNW,292,0.0,0.0,78,0.00,CLR,,0.00,WeatherDisplay:10.37,2013-09-04 22:38:00,
2013-09-04 23:43:00,55.9,49.2,29.40,West,270,0.0,0.0,78,0.00,CLR,,0.00,WeatherDisplay:10.37,2013-09-04 22:43:00,
2013-09-04 23:48:00,55.9,49.2,29.39,SE,135,2.3,2.3,78,0.00,CLR,,0.00,WeatherDisplay:10.37,2013-09-04 22:48:00,
2013-09-04 23:53:00,55.9,49.2,29.39,SW,225,0.0,0.0,78,0.00,CLR,,0.00,WeatherDisplay:10.37,2013-09-04 22:53:00,
2013-09-04 23:58:00,55.9,49.2,29.39,East,90,0.0,0.0,78,0.00,CLR,,0.00,WeatherDisplay:10.37,2013-09-04 22:58:00,